Time;durP1;ratioP1;P1;durP2;ratioP2;P2;SDS_P1;SDS_P2;PMS_P1;PMS_P2;Temp;Humidity;BMP_temperature;BMP_pressure;BME280_temperature;BME280_humidity;BME280_pressure;Samples;Min_cycle;Max_cycle;Signal;HPM_P1;HPM_P2
2022/09/05 00:04:46;;;;;;;8.30;5.82;;;;;;;18.33;96.42;101963.59;10439176;28;20041;-77
2022/09/05 00:09:59;;;;;;;12.30;6.18;;;;;;;18.24;97.58;101961.66;10435281;28;20067;-77
2022/09/05 00:15:22;;;;;;;11.07;5.32;;;;;;;18.14;98.17;101962.47;10432299;28;20129;-77
2022/09/05 00:20:38;;;;;;;8.20;5.05;;;;;;;18.09;98.47;101966.09;10417552;28;21407;-76
2022/09/05 00:26:07;;;;;;;8.10;5.28;;;;;;;18.05;99.86;101964.16;10360240;28;20044;-78
2022/09/05 00:31:17;;;;;;;8.35;5.75;;;;;;;18.03;99.94;101967.22;10403715;28;20107;-77
2022/09/05 00:36:42;;;;;;;8.48;5.32;;;;;;;18.02;100.00;101967.50;10415141;28;20037;-78
2022/09/05 00:41:43;;;;;;;8.95;5.15;;;;;;;17.91;100.00;101953.56;10415953;28;20033;-77
2022/09/05 00:46:52;;;;;;;11.35;5.65;;;;;;;17.94;100.00;101950.22;10407306;28;20095;-76
2022/09/05 00:52:20;;;;;;;8.25;5.40;;;;;;;17.89;100.00;101966.94;10390864;28;20079;-78
2022/09/05 00:57:53;;;;;;;6.97;4.82;;;;;;;17.81;100.00;101959.09;10425852;28;20041;-77
2022/09/05 01:03:08;;;;;;;6.97;4.88;;;;;;;17.71;100.00;101954.34;10374351;28;20090;-77
2022/09/05 01:08:45;;;;;;;7.88;5.45;;;;;;;17.65;100.00;101954.59;10428098;28;20029;-78
2022/09/05 01:14:09;;;;;;;6.87;4.83;;;;;;;17.59;100.00;101952.91;10414432;28;20091;-77
2022/09/05 01:19:35;;;;;;;6.72;4.07;;;;;;;17.55;100.00;101959.06;10420433;28;20288;-78
2022/09/05 01:24:41;;;;;;;5.50;4.47;;;;;;;17.50;100.00;101956.25;10420908;28;20034;-78
2022/09/05 01:29:50;;;;;;;5.43;4.60;;;;;;;17.43;100.00;101955.69;10409603;28;20034;-77
2022/09/05 01:35:01;;;;;;;5.63;3.90;;;;;;;17.40;100.00;101959.00;10381100;28;20041;-77
2022/09/05 01:40:23;;;;;;;4.07;3.35;;;;;;;17.34;100.00;101960.09;10413116;28;20038;-77
2022/09/05 01:45:50;;;;;;;7.40;3.80;;;;;;;17.29;100.00;101958.13;10415242;28;20073;-77
2022/09/05 01:51:01;;;;;;;5.72;3.42;;;;;;;17.25;100.00;101957.00;10414412;28;20045;-77
2022/09/05 01:56:22;;;;;;;5.03;3.55;;;;;;;17.18;100.00;101950.88;10384950;28;20055;-78
2022/09/05 02:01:41;;;;;;;6.20;3.72;;;;;;;17.09;100.00;101950.53;10401267;28;20053;-78
2022/09/05 02:07:06;;;;;;;5.32;3.03;;;;;;;16.98;100.00;101939.66;10421031;28;20044;-78
2022/09/05 02:12:20;;;;;;;4.97;3.60;;;;;;;16.86;100.00;101923.19;10454692;28;20036;-77
2022/09/05 02:17:24;;;;;;;5.07;3.42;;;;;;;16.93;100.00;101946.06;10422837;28;20037;-78
2022/09/05 02:22:32;;;;;;;12.70;3.58;;;;;;;16.85;100.00;101947.41;10417374;28;20077;-78
2022/09/05 02:27:36;;;;;;;7.32;5.10;;;;;;;16.70;100.00;101938.91;10422162;28;20037;-78
2022/09/05 02:33:04;;;;;;;4.95;4.35;;;;;;;16.72;100.00;101961.72;10430853;28;20037;-78
2022/09/05 02:38:19;;;;;;;4.97;3.85;;;;;;;16.64;100.00;101965.88;10454373;28;20052;-77
2022/09/05 02:43:35;;;;;;;6.25;4.68;;;;;;;16.58;100.00;101969.75;10454070;28;20045;-78
2022/09/05 02:49:08;;;;;;;6.25;4.85;;;;;;;16.51;100.00;101961.59;10436519;28;20107;-77
2022/09/05 02:54:11;;;;;;;8.00;5.32;;;;;;;16.34;100.00;101942.31;10411893;28;20116;-77
2022/09/05 02:59:46;;;;;;;6.22;4.55;;;;;;;16.39;100.00;101966.56;10397671;28;20448;-77
2022/09/05 03:05:23;;;;;;;7.45;5.18;;;;;;;16.19;100.00;101942.22;10403904;28;20056;-77
2022/09/05 03:11:05;;;;;;;7.10;5.97;;;;;;;16.21;100.00;101961.41;10403979;28;20071;-78
2022/09/05 03:16:41;;;;;;;6.32;5.72;;;;;;;16.12;100.00;101950.78;10415869;28;20049;-77
2022/09/05 03:21:53;;;;;;;6.53;5.57;;;;;;;15.91;100.00;101944.19;10362623;28;20086;-78
2022/09/05 03:27:18;;;;;;;8.80;6.35;;;;;;;15.99;100.00;101962.31;10439927;28;20046;-77
2022/09/05 03:32:32;;;;;;;7.18;5.78;;;;;;;15.88;100.00;101950.28;10422539;28;20040;-78
2022/09/05 03:37:59;;;;;;;5.70;4.63;;;;;;;15.56;100.00;101896.66;10460648;28;20033;-78
2022/09/05 03:43:30;;;;;;;5.50;4.93;;;;;;;15.72;100.00;101946.53;10379292;28;20117;-78
2022/09/05 03:48:47;;;;;;;5.80;3.72;;;;;;;15.80;100.00;101969.38;10418787;28;20142;-78
2022/09/05 03:54:13;;;;;;;4.85;3.83;;;;;;;15.74;100.00;101971.25;10418004;28;20041;-77
2022/09/05 03:59:44;;;;;;;4.82;3.63;;;;;;;15.68;100.00;101966.72;10420024;28;20049;-77
2022/09/05 04:04:52;;;;;;;6.15;3.85;;;;;;;15.61;100.00;101978.03;10418032;28;20057;-77
2022/09/05 04:10:06;;;;;;;6.03;4.10;;;;;;;15.58;100.00;101986.88;10427528;28;20037;-75
2022/09/05 04:15:29;;;;;;;7.45;4.95;;;;;;;15.51;100.00;101987.09;10430585;28;20041;-77
2022/09/05 04:20:37;;;;;;;5.53;4.85;;;;;;;15.36;100.00;101970.28;10417685;28;20041;-77
2022/09/05 04:25:42;;;;;;;8.02;5.53;;;;;;;15.38;100.00;101990.28;10418217;28;20040;-77
2022/09/05 04:30:44;;;;;;;7.65;5.63;;;;;;;15.27;100.00;101988.47;10398967;28;20037;-77
2022/09/05 04:36:07;;;;;;;6.85;5.95;;;;;;;15.24;100.00;101994.53;10416248;28;20514;-76
2022/09/05 04:41:18;;;;;;;7.82;5.97;;;;;;;15.14;100.00;101982.22;10413420;28;20418;-69
2022/09/05 04:46:39;;;;;;;8.73;6.72;;;;;;;15.07;100.00;101989.91;10415444;28;20042;-77
2022/09/05 04:52:05;;;;;;;11.50;7.05;;;;;;;14.65;100.00;101931.38;10441025;28;20509;-77
2022/09/05 04:57:39;;;;;;;7.70;6.53;;;;;;;14.95;100.00;102002.22;10455807;28;20115;-77
2022/09/05 05:02:47;;;;;;;11.18;7.63;;;;;;;14.84;100.00;101981.81;10382916;28;20049;-77
2022/09/05 05:08:11;;;;;;;9.02;7.82;;;;;;;14.85;100.00;101997.34;10412057;28;20040;-76
2022/09/05 05:13:24;;;;;;;8.55;6.40;;;;;;;14.89;100.00;102002.13;10434448;28;20065;-78
2022/09/05 05:18:27;;;;;;;7.22;5.25;;;;;;;14.86;100.00;102008.19;10413211;28;20065;-78
2022/09/05 05:23:35;;;;;;;11.13;5.70;;;;;;;14.92;100.00;102020.19;10398929;28;20079;-77
2022/09/05 05:28:57;;;;;;;6.45;5.18;;;;;;;14.95;100.00;102013.31;10429073;28;20043;-77
2022/09/05 05:34:03;;;;;;;7.30;4.85;;;;;;;14.98;100.00;102019.16;10444438;28;20041;-77
2022/09/05 05:39:07;;;;;;;5.60;4.38;;;;;;;14.96;100.00;102015.81;10400510;28;20033;-77
2022/09/05 05:44:15;;;;;;;5.55;4.55;;;;;;;15.11;100.00;102017.94;10455258;28;20104;-77
2022/09/05 05:49:26;;;;;;;7.50;4.85;;;;;;;15.26;100.00;102031.19;10396681;28;20120;-77
2022/09/05 05:54:57;;;;;;;7.70;4.55;;;;;;;15.37;100.00;102037.69;10404865;28;20075;-78
2022/09/05 06:00:16;;;;;;;6.40;4.50;;;;;;;15.46;100.00;102037.00;10401253;28;20041;-76
2022/09/05 06:05:34;;;;;;;6.38;4.68;;;;;;;15.52;100.00;102030.41;10427193;28;20545;-77
2022/09/05 06:11:16;;;;;;;10.25;4.72;;;;;;;15.25;100.00;101976.78;10437109;28;20037;-78
2022/09/05 06:16:29;;;;;;;5.18;4.30;;;;;;;15.69;100.00;102035.03;10406360;28;20039;-77
2022/09/05 06:21:38;;;;;;;8.63;4.72;;;;;;;15.80;100.00;102036.84;10456841;28;20045;-77
2022/09/05 06:26:43;;;;;;;6.40;4.05;;;;;;;15.86;100.00;102032.19;10453626;28;20037;-79
2022/09/05 06:32:04;;;;;;;6.32;4.82;;;;;;;16.13;100.00;102035.78;10430629;28;20282;-77
2022/09/05 06:37:09;;;;;;;5.10;4.07;;;;;;;16.41;100.00;102030.19;10366610;28;20371;-77
2022/09/05 06:42:36;;;;;;;6.65;5.15;;;;;;;16.75;100.00;102031.56;10411267;28;20052;-77
2022/09/05 06:47:36;;;;;;;6.88;4.65;;;;;;;17.16;100.00;102022.66;10414453;28;20048;-78
2022/09/05 06:53:02;;;;;;;8.50;5.30;;;;;;;17.35;100.00;102034.16;10417054;28;20041;-78
2022/09/05 06:58:05;;;;;;;9.98;5.53;;;;;;;17.49;100.00;102024.19;10447140;28;20056;-78
2022/09/05 07:03:39;;;;;;;6.95;5.50;;;;;;;17.80;100.00;102018.72;10462613;28;20096;-79
2022/09/05 07:08:44;;;;;;;11.65;6.75;;;;;;;18.12;100.00;102010.13;10461760;28;20052;-78
2022/09/05 07:14:45;;;;;;;8.15;5.90;;;;;;;18.45;100.00;102013.47;10440188;28;20045;-79
2022/09/05 07:19:53;;;;;;;7.65;4.70;;;;;;;18.72;100.00;102006.75;10354567;28;20042;-78
2022/09/05 07:24:54;;;;;;;7.88;4.50;;;;;;;18.42;100.00;101923.97;10423308;28;20057;-77
2022/09/05 07:29:55;;;;;;;4.93;4.40;;;;;;;19.04;100.00;102008.38;10402103;28;20037;-78
2022/09/05 07:34:56;;;;;;;5.40;4.60;;;;;;;19.17;100.00;102009.75;10419214;28;20101;-77
2022/09/05 07:39:57;;;;;;;6.50;4.28;;;;;;;19.33;100.00;102022.53;10435152;28;20037;-77
2022/09/05 07:45:05;;;;;;;5.68;4.63;;;;;;;19.47;100.00;102023.56;10442837;28;20044;-77
2022/09/05 07:50:07;;;;;;;6.38;4.05;;;;;;;19.60;100.00;102024.91;10444410;28;20041;-77
2022/09/05 07:55:25;;;;;;;5.07;4.10;;;;;;;19.69;100.00;102017.56;10428133;28;20061;-76
2022/09/05 08:00:26;;;;;;;10.60;4.63;;;;;;;19.84;100.00;102004.66;10426091;28;20044;-77
2022/09/05 08:05:32;;;;;;;7.00;4.57;;;;;;;20.16;100.00;102029.31;10385048;28;20048;-77
2022/09/05 08:11:06;;;;;;;8.60;4.00;;;;;;;20.50;100.00;102028.47;10417820;28;20049;-77
2022/09/05 08:16:08;;;;;;;7.30;3.67;;;;;;;20.88;99.40;102039.91;10360953;28;20049;-77
2022/09/05 08:21:42;;;;;;;35.10;6.38;;;;;;;21.00;96.83;102026.34;10387321;28;20057;-78
2022/09/05 08:26:44;;;;;;;7.88;4.72;;;;;;;21.16;94.15;102025.00;10434289;28;20049;-77
2022/09/05 08:32:07;;;;;;;20.23;5.80;;;;;;;21.43;95.19;102026.38;10417338;28;20037;-77
2022/09/05 08:37:29;;;;;;;5.57;4.18;;;;;;;21.71;92.89;102004.16;10428300;28;20057;-77
2022/09/05 08:42:37;;;;;;;15.75;5.38;;;;;;;22.11;91.14;102001.84;10422862;28;20522;-77
2022/09/05 08:48:06;;;;;;;6.13;3.53;;;;;;;22.58;89.71;101999.97;10347679;28;20064;-77
2022/09/05 08:53:10;;;;;;;17.38;5.88;;;;;;;22.84;87.47;102003.13;10437591;28;20417;-79
2022/09/05 08:58:32;;;;;;;8.65;3.40;;;;;;;23.24;86.43;102005.44;10447879;28;20044;-76
2022/09/05 09:04:00;;;;;;;30.42;6.30;;;;;;;23.14;86.37;101964.34;10418794;28;20076;-78
2022/09/05 09:09:07;;;;;;;5.22;3.50;;;;;;;23.56;83.79;101970.72;10401173;28;20093;-79
2022/09/05 09:14:22;;;;;;;8.05;3.00;;;;;;;23.88;84.85;101985.78;10398245;28;20038;-78
2022/09/05 09:19:24;;;;;;;5.43;3.17;;;;;;;24.08;82.48;101970.34;10414715;28;20048;-80
2022/09/05 09:24:40;;;;;;;3.65;3.25;;;;;;;24.06;82.25;101983.91;10369321;28;20050;-80
2022/09/05 09:29:41;;;;;;;18.80;3.60;;;;;;;24.18;81.44;101967.28;10397630;28;20042;-81
2022/09/05 09:34:50;;;;;;;25.98;5.68;;;;;;;24.47;81.10;101961.16;10414494;28;20053;-80
2022/09/05 09:40:24;;;;;;;110.47;16.60;;;;;;;24.88;80.19;101953.59;10374884;28;20038;-80
2022/09/05 09:45:28;;;;;;;17.60;5.47;;;;;;;25.13;78.92;101947.22;10383824;28;20104;-78
2022/09/05 09:50:36;;;;;;;9.82;4.10;;;;;;;25.38;78.53;101950.44;10412929;28;20439;-78
2022/09/05 09:56:02;;;;;;;5.35;2.83;;;;;;;25.41;77.07;101949.78;10413518;28;20494;-77
2022/09/05 10:01:26;;;;;;;21.30;4.78;;;;;;;25.70;75.93;101945.50;10414003;28;20076;-80
2022/09/05 10:06:42;;;;;;;21.10;4.75;;;;;;;25.99;74.84;101941.22;10414237;28;20049;-77
2022/09/05 10:12:04;;;;;;;6.40;2.87;;;;;;;26.49;74.73;101938.59;10397334;28;20335;-77
2022/09/05 10:17:30;;;;;;;8.25;3.17;;;;;;;26.75;71.43;101929.22;10415087;28;20041;-84
2022/09/05 10:22:33;;;;;;;8.75;3.42;;;;;;;27.01;71.71;101926.25;10443079;28;20037;-80
2022/09/05 10:27:56;;;;;;;6.07;2.42;;;;;;;27.11;69.82;101914.53;10435326;28;20036;-80
2022/09/05 10:33:25;;;;;;;5.43;2.33;;;;;;;27.36;70.96;101909.06;10436048;28;20045;-77
2022/09/05 10:38:37;;;;;;;5.03;2.53;;;;;;;27.61;67.86;101903.56;10379189;28;20044;-79
2022/09/05 10:44:03;;;;;;;18.63;4.30;;;;;;;27.68;68.18;101910.31;10394136;28;20125;-79
2022/09/05 10:49:06;;;;;;;12.30;3.97;;;;;;;27.89;68.20;101901.00;10378041;28;20095;-76
2022/09/05 10:54:29;;;;;;;6.68;2.85;;;;;;;28.06;67.01;101892.31;10395943;28;20105;-75
2022/09/05 10:59:36;;;;;;;33.72;5.07;;;;;;;28.25;65.21;101876.78;10434567;28;20056;-74
2022/09/05 11:04:47;;;;;;;6.85;2.38;;;;;;;28.21;65.22;101890.81;10417772;28;20094;-77
2022/09/05 11:10:09;;;;;;;20.02;3.30;;;;;;;28.12;64.36;101882.44;10416510;28;20052;-76
2022/09/05 11:15:16;;;;;;;13.13;4.20;;;;;;;28.28;64.73;101891.09;10405897;28;20046;-75
2022/09/05 11:20:48;;;;;;;4.00;2.10;;;;;;;28.59;63.26;101881.25;10411577;28;20038;-75
2022/09/05 11:26:03;;;;;;;8.52;2.38;;;;;;;28.50;62.20;101826.69;10410118;28;20052;-75
2022/09/05 11:31:08;;;;;;;6.03;2.35;;;;;;;29.13;61.13;101863.97;10435697;28;20071;-77
2022/09/05 11:36:14;;;;;;;6.22;2.00;;;;;;;29.44;60.77;101865.28;10403838;28;20044;-77
2022/09/05 11:41:37;;;;;;;3.97;1.88;;;;;;;29.41;60.00;101862.34;10405452;28;20033;-76
2022/09/05 11:47:02;;;;;;;4.68;2.17;;;;;;;29.54;58.19;101842.09;10421998;28;20067;-67
2022/09/05 11:52:41;;;;;;;5.85;2.22;;;;;;;29.64;58.74;101852.06;10401723;28;20048;-74
2022/09/05 11:58:03;;;;;;;8.90;2.53;;;;;;;30.26;57.20;101852.56;10394071;28;20038;-77
2022/09/05 12:03:23;;;;;;;7.20;2.70;;;;;;;30.92;56.43;101850.16;10388758;28;20096;-76
2022/09/05 12:08:35;;;;;;;8.68;2.30;;;;;;;31.32;55.44;101844.16;10416042;28;20042;-83
2022/09/05 12:13:47;;;;;;;5.30;2.42;;;;;;;32.13;52.83;101822.59;10416956;28;20090;-77
2022/09/05 12:19:10;;;;;;;6.47;2.17;;;;;;;32.55;52.27;101813.94;10441419;28;20029;-80
2022/09/05 12:24:18;;;;;;;37.95;9.20;;;;;;;33.43;49.47;101789.09;10441891;28;20049;-73
2022/09/05 12:29:21;;;;;;;4.85;2.65;;;;;;;33.74;49.30;101796.38;10424779;28;20118;-77
2022/09/05 12:34:50;;;;;;;5.68;2.22;;;;;;;33.60;48.27;101810.47;10408396;28;20033;-80
2022/09/05 12:39:59;;;;;;;3.67;2.40;;;;;;;33.73;47.22;101794.72;10440794;28;20580;-76
2022/09/05 12:45:08;;;;;;;5.35;2.58;;;;;;;34.13;47.35;101786.59;10373457;28;20121;-77
2022/09/05 12:50:12;;;;;;;4.88;2.28;;;;;;;34.59;45.47;101786.09;10413547;28;20044;-78
2022/09/05 12:55:21;;;;;;;3.20;1.75;;;;;;;35.19;44.88;101769.72;10423469;28;20037;-77
2022/09/05 13:00:22;;;;;;;6.88;2.70;;;;;;;35.26;44.33;101786.88;10397851;28;20045;-74
2022/09/05 13:05:25;;;;;;;2.75;2.00;;;;;;;35.06;42.83;101754.88;10380828;28;20417;-76
2022/09/05 13:10:37;;;;;;;4.55;1.60;;;;;;;34.47;44.03;101780.69;10347643;28;20042;-80
2022/09/05 13:15:39;;;;;;;4.35;2.00;;;;;;;34.46;42.77;101759.88;10379476;28;20053;-73
2022/09/05 13:21:05;;;;;;;4.05;2.42;;;;;;;35.09;42.76;101748.38;10419092;28;20037;-74
2022/09/05 13:26:22;;;;;;;6.65;1.83;;;;;;;34.73;43.53;101763.34;10397476;28;20050;-77
2022/09/05 13:31:41;;;;;;;5.25;1.92;;;;;;;35.14;42.90;101777.47;10395320;28;20048;-78
2022/09/05 13:37:02;;;;;;;2.97;2.15;;;;;;;34.98;42.74;101768.38;10415193;28;20103;-75
2022/09/05 13:42:02;;;;;;;8.60;2.30;;;;;;;33.80;43.53;101764.59;10382144;28;20043;-77
2022/09/05 13:47:35;;;;;;;8.20;2.28;;;;;;;33.49;44.97;101761.84;10379972;28;20072;-78
2022/09/05 13:52:39;;;;;;;2.97;1.98;;;;;;;33.60;44.44;101724.81;10391935;28;20061;-77
2022/09/05 13:57:53;;;;;;;4.32;2.05;;;;;;;34.31;43.90;101744.66;10385468;28;20040;-74
2022/09/05 14:03:11;;;;;;;5.70;1.88;;;;;;;34.42;43.53;101752.47;10406612;28;20037;-72
2022/09/05 14:08:32;;;;;;;7.28;1.83;;;;;;;33.76;44.15;101764.59;10453537;28;20041;-73
2022/09/05 14:14:22;;;;;;;2.28;1.77;;;;;;;33.64;43.36;101745.69;10453810;28;20041;-74
2022/09/05 14:24:44;;;;;;;2.13;1.65;;;;;;;34.16;42.79;101728.63;10386188;28;20042;-75
2022/09/05 14:29:52;;;;;;;4.18;1.70;;;;;;;34.73;42.97;101743.31;10418463;28;20474;-75
2022/09/05 14:35:13;;;;;;;3.83;2.25;;;;;;;34.88;42.75;101729.09;10355565;28;20038;-73
2022/09/05 14:40:45;;;;;;;3.25;1.80;;;;;;;34.69;42.32;101711.00;10408799;28;20037;-75
2022/09/05 14:46:16;;;;;;;2.67;1.80;;;;;;;35.01;41.54;101716.03;10395389;28;20567;-76
2022/09/05 14:51:36;;;;;;;2.65;1.60;;;;;;;35.80;40.63;101699.06;10412252;28;20079;-72
2022/09/05 14:56:39;;;;;;;9.27;1.73;;;;;;;35.89;38.78;101667.94;10394032;28;20117;-71
2022/09/05 15:01:53;;;;;;;6.40;2.05;;;;;;;35.56;39.32;101674.91;10366868;28;20167;-73
2022/09/05 15:07:24;;;;;;;2.67;1.70;;;;;;;34.98;40.84;101705.41;10407043;28;20076;-70
2022/09/05 15:12:26;;;;;;;3.50;2.33;;;;;;;35.15;41.23;101689.53;10409371;28;20045;-73
2022/09/05 15:17:27;;;;;;;3.30;2.55;;;;;;;35.34;41.35;101691.22;10420865;28;20116;-74
2022/09/05 15:22:30;;;;;;;6.43;2.20;;;;;;;34.52;41.12;101683.09;10386148;28;20046;-71
2022/09/05 15:27:30;;;;;;;3.58;2.20;;;;;;;33.52;42.92;101683.16;10403371;28;20041;-70
2022/09/05 15:32:31;;;;;;;4.85;1.52;;;;;;;32.77;43.91;101694.53;10386707;28;20378;-71
2022/09/05 15:37:37;;;;;;;4.18;1.58;;;;;;;32.72;44.17;101692.00;10418255;28;20116;-71
2022/09/05 15:42:43;;;;;;;5.95;1.77;;;;;;;32.54;45.10;101697.47;10418599;28;20107;-70
2022/09/05 15:47:44;;;;;;;8.35;2.67;;;;;;;32.10;46.13;101695.16;10425736;28;20029;-70
2022/09/05 15:52:49;;;;;;;6.15;1.73;;;;;;;31.86;47.00;101702.91;10363045;28;20147;-67
2022/09/05 15:57:52;;;;;;;4.70;2.10;;;;;;;31.40;47.91;101702.88;10439005;28;20037;-65
2022/09/05 16:02:53;;;;;;;3.88;2.22;;;;;;;30.57;50.54;101708.84;10400345;28;20041;-75
2022/09/05 16:07:59;;;;;;;4.25;1.48;;;;;;;29.92;50.77;101710.13;10401149;28;20497;-74
2022/09/05 16:13:14;;;;;;;6.70;1.70;;;;;;;29.32;52.38;101717.84;10376801;28;20121;-77
2022/09/05 16:18:20;;;;;;;4.13;1.33;;;;;;;28.96;53.12;101713.94;10375923;28;20042;-75
2022/09/05 16:23:30;;;;;;;6.28;1.95;;;;;;;28.65;52.66;101707.00;10371864;28;20457;-72
2022/09/05 16:28:42;;;;;;;4.38;1.40;;;;;;;28.37;53.03;101704.88;10413655;28;20036;-75
2022/09/05 16:33:42;;;;;;;4.78;2.10;;;;;;;28.23;54.67;101721.41;10398692;28;20113;-74
2022/09/05 16:39:18;;;;;;;5.28;1.50;;;;;;;27.97;54.80;101714.13;10410267;28;20040;-74
2022/09/05 16:44:37;;;;;;;9.27;1.98;;;;;;;27.80;56.45;101716.31;10362158;28;20045;-75
2022/09/05 16:49:43;;;;;;;3.40;1.67;;;;;;;27.52;56.72;101720.63;10382870;28;20121;-75
2022/09/05 16:54:48;;;;;;;;;;;;;;;27.38;58.28;101720.13;10400234;28;20105;-73
2022/09/05 16:59:48;;;;;;;2.88;1.50;;;;;;;27.15;59.75;101717.66;10365910;28;19924;-74
2022/09/05 17:05:10;;;;;;;2.97;1.60;;;;;;;26.93;58.74;101710.38;10349302;28;20033;-73
2022/09/05 17:10:16;;;;;;;3.65;1.83;;;;;;;26.62;59.97;101716.44;10416182;28;20037;-72
2022/09/05 17:15:49;;;;;;;4.23;1.70;;;;;;;26.35;61.09;101712.94;10415877;28;20060;-74
2022/09/05 17:20:52;;;;;;;5.15;1.60;;;;;;;26.02;61.98;101709.16;10429741;28;20075;-76
2022/09/05 17:26:01;;;;;;;9.48;2.00;;;;;;;25.71;62.97;101705.44;10346045;28;20045;-90
2022/09/05 17:31:01;;;;;;;7.95;2.08;;;;;;;25.46;64.70;101700.72;10366144;28;20034;-93
2022/09/05 17:36:05;;;;;;;4.65;1.52;;;;;;;25.34;65.63;101719.16;10357864;28;20026;-93
2022/09/05 17:41:32;;;;;;;5.38;1.95;;;;;;;25.14;66.39;101715.00;10414625;28;20045;-92
2022/09/05 17:46:33;;;;;;;;;;;;;;;25.02;67.73;101706.41;10405381;28;20048;-93
2022/09/05 17:51:33;;;;;;;7.00;2.00;;;;;;;24.86;68.79;101719.34;10428595;28;19928;-91
2022/09/05 17:56:35;;;;;;;6.13;4.78;;;;;;;24.65;69.41;101714.34;10413296;28;20111;-90
2022/09/05 18:01:36;;;;;;;9.25;2.47;;;;;;;24.55;70.47;101712.69;10363506;28;20045;-85
2022/09/05 18:06:41;;;;;;;6.50;2.15;;;;;;;24.45;71.66;101726.22;10412162;28;20045;-85
2022/09/05 18:12:02;;;;;;;4.20;2.30;;;;;;;24.36;72.71;101741.09;10427561;28;20030;-85
2022/09/05 18:17:27;;;;;;;4.97;2.30;;;;;;;23.91;73.49;101687.84;10404654;28;20037;-85
2022/09/05 18:22:32;;;;;;;6.55;1.85;;;;;;;24.22;73.28;101751.66;10391486;28;20055;-85
2022/09/05 18:27:55;;;;;;;11.00;2.67;;;;;;;24.22;79.13;101774.16;10413055;28;20044;-90
2022/09/05 18:32:55;;;;;;;6.90;3.03;;;;;;;24.04;95.43;101772.44;10411170;28;20076;-78
2022/09/05 18:38:01;;;;;;;6.65;2.97;;;;;;;23.61;100.00;101765.41;10418693;28;20030;-79
2022/09/05 18:43:03;;;;;;;9.13;3.33;;;;;;;23.30;100.00;101759.75;10412332;28;20049;-78
2022/09/05 18:48:06;;;;;;;6.43;3.08;;;;;;;23.11;100.00;101752.34;10427729;28;20034;-78
2022/09/05 18:53:07;;;;;;;5.97;3.13;;;;;;;23.14;97.92;101762.09;10370174;28;20049;-77
2022/09/05 18:58:09;;;;;;;7.30;3.03;;;;;;;23.01;99.66;101758.22;10362634;28;20060;-77
2022/09/05 19:03:16;;;;;;;6.55;3.42;;;;;;;22.93;100.00;101764.56;10388583;28;20049;-78
2022/09/05 19:08:28;;;;;;;8.30;3.33;;;;;;;22.73;100.00;101751.81;10424228;28;20049;-76
2022/09/05 19:13:30;;;;;;;6.00;3.72;;;;;;;22.69;100.00;101768.44;10412673;28;20048;-76
2022/09/05 19:18:31;;;;;;;6.40;4.10;;;;;;;22.56;100.00;101760.91;10418394;28;20219;-76
2022/09/05 19:23:51;;;;;;;6.00;3.90;;;;;;;22.39;100.00;101757.88;10420531;28;20048;-76
2022/09/05 19:28:56;;;;;;;9.35;3.47;;;;;;;22.28;100.00;101758.13;10419815;28;20037;-77
2022/09/05 19:34:09;;;;;;;5.70;3.60;;;;;;;22.25;100.00;101758.75;10415543;28;20041;-76
2022/09/05 19:39:12;;;;;;;4.57;3.50;;;;;;;22.16;100.00;101769.84;10417931;28;20063;-77
2022/09/05 19:44:24;;;;;;;7.82;3.40;;;;;;;22.05;100.00;101759.13;10400447;28;20044;-77
2022/09/05 19:49:25;;;;;;;5.65;3.80;;;;;;;22.13;96.66;101776.03;10415657;28;20069;-75
2022/09/05 19:54:33;;;;;;;8.30;4.13;;;;;;;22.05;100.00;101775.94;10409627;28;20041;-76
2022/09/05 19:59:38;;;;;;;6.22;3.63;;;;;;;21.78;100.00;101749.53;10415641;28;20049;-77
2022/09/05 20:04:49;;;;;;;5.63;3.75;;;;;;;21.77;100.00;101764.72;10415113;28;20029;-77
2022/09/05 20:09:50;;;;;;;8.20;3.83;;;;;;;21.68;100.00;101766.53;10428347;28;20111;-77
2022/09/05 20:14:50;;;;;;;10.35;4.35;;;;;;;21.59;100.00;101762.81;10397527;28;20045;-77
2022/09/05 20:20:04;;;;;;;12.93;4.47;;;;;;;21.54;99.83;101756.16;10356042;28;20038;-76
2022/09/05 20:25:10;;;;;;;4.43;3.58;;;;;;;21.40;99.85;101752.44;10412856;28;20042;-77
2022/09/05 20:30:16;;;;;;;6.10;3.47;;;;;;;21.41;99.96;101767.28;10397584;28;20030;-77
2022/09/05 20:35:39;;;;;;;10.18;3.33;;;;;;;21.28;100.00;101757.69;10419111;28;20513;-76
2022/09/05 20:40:40;;;;;;;7.53;3.83;;;;;;;20.85;100.00;101713.84;10410807;28;20044;-76
2022/09/05 20:45:44;;;;;;;12.60;3.58;;;;;;;21.03;100.00;101756.97;10356276;28;1111526;-77
2022/09/05 20:50:45;;;;;;;6.00;3.80;;;;;;;20.99;100.00;101764.31;10413566;28;20041;-76
2022/09/05 20:55:45;;;;;;;4.97;3.67;;;;;;;20.92;100.00;101761.06;10415239;28;20045;-77
2022/09/05 21:00:47;;;;;;;6.35;3.72;;;;;;;20.81;100.00;101765.97;10429196;28;20033;-77
2022/09/05 21:05:48;;;;;;;10.30;3.90;;;;;;;20.79;100.00;101770.19;10394389;28;20029;-77
2022/09/05 21:10:51;;;;;;;10.07;3.55;;;;;;;20.69;100.00;101762.78;10425815;28;20508;-77
2022/09/05 21:15:52;;;;;;;9.88;3.63;;;;;;;20.73;99.63;101766.63;10426986;28;20029;-77
2022/09/05 21:21:29;;;;;;;7.80;3.38;;;;;;;20.69;99.13;101762.78;10414970;28;20059;-76
2022/09/05 21:26:30;;;;;;;5.65;3.15;;;;;;;20.66;98.87;101771.78;10412400;28;20037;-77
2022/09/05 21:31:30;;;;;;;7.22;3.35;;;;;;;20.61;98.29;101755.91;10418724;28;20041;-77
2022/09/05 21:36:31;;;;;;;10.88;3.70;;;;;;;20.49;97.34;101739.53;10424689;28;20033;-77
2022/09/05 21:41:31;;;;;;;5.18;3.38;;;;;;;20.44;97.40;101731.19;10442479;28;20057;-76
2022/09/05 21:46:34;;;;;;;7.43;3.33;;;;;;;20.44;97.03;101735.94;10414030;28;20405;-77
2022/09/05 21:51:35;;;;;;;6.15;3.38;;;;;;;20.39;96.63;101733.25;10408329;28;20033;-76
2022/09/05 21:56:39;;;;;;;9.32;2.63;;;;;;;20.32;95.71;101730.81;10407350;28;20033;-76
2022/09/05 22:01:39;;;;;;;4.63;3.30;;;;;;;20.28;95.54;101726.97;10396885;28;20034;-76
2022/09/05 22:06:40;;;;;;;5.57;3.05;;;;;;;20.17;95.39;101717.84;10395271;28;20040;-75
2022/09/05 22:11:40;;;;;;;9.02;3.67;;;;;;;20.20;95.68;101722.84;10406616;28;20624;-76
2022/09/05 22:16:46;;;;;;;6.07;3.20;;;;;;;20.14;95.38;101724.03;10427374;28;20029;-76
2022/09/05 22:21:50;;;;;;;4.03;3.22;;;;;;;20.02;95.62;101709.66;10412199;28;20075;-76
2022/09/05 22:26:53;;;;;;;11.98;3.30;;;;;;;20.03;96.88;101722.50;10399891;28;20044;-76
2022/09/05 22:31:53;;;;;;;4.47;3.35;;;;;;;19.91;97.39;101715.38;10413097;28;20148;-76
2022/09/05 22:36:54;;;;;;;7.13;2.80;;;;;;;19.76;98.17;101698.75;10380618;28;20042;-76
2022/09/05 22:41:55;;;;;;;4.47;3.35;;;;;;;19.76;99.51;101707.13;10402492;28;20041;-75
2022/09/05 22:46:56;;;;;;;7.97;3.50;;;;;;;19.66;100.00;101701.66;10426848;28;20037;-76
2022/09/05 22:51:56;;;;;;;10.55;3.85;;;;;;;19.58;100.00;101705.09;10454688;28;20097;-76
2022/09/05 22:56:57;;;;;;;6.70;4.00;;;;;;;19.41;100.00;101672.00;10453684;28;20029;-76
2022/09/05 23:01:57;;;;;;;8.88;3.35;;;;;;;19.46;100.00;101680.34;10450873;28;20064;-76
2022/09/05 23:07:01;;;;;;;8.25;3.83;;;;;;;19.25;100.00;101674.97;10433926;28;20037;-76
2022/09/05 23:12:02;;;;;;;8.63;3.70;;;;;;;19.37;100.00;101671.78;10394605;28;20033;-75
2022/09/05 23:17:02;;;;;;;7.95;3.28;;;;;;;19.37;100.00;101669.00;10429086;28;20040;-76
2022/09/05 23:22:03;;;;;;;4.90;3.13;;;;;;;19.32;100.00;101664.28;10451923;28;20048;-76
2022/09/05 23:27:03;;;;;;;8.80;3.10;;;;;;;19.11;100.00;101641.31;10451618;28;20037;-72
2022/09/05 23:32:04;;;;;;;8.85;3.83;;;;;;;19.20;100.00;101646.25;10453337;28;20048;-76
2022/09/05 23:37:06;;;;;;;5.53;3.63;;;;;;;19.04;100.00;101624.09;10461610;28;20120;-75
2022/09/05 23:42:08;;;;;;;6.22;3.58;;;;;;;19.02;100.00;101626.34;10404874;28;20101;-75
2022/09/05 23:47:09;;;;;;;6.18;3.95;;;;;;;19.02;100.00;101631.91;10368293;28;20206;-76
2022/09/05 23:52:09;;;;;;;6.60;3.67;;;;;;;18.90;100.00;101617.53;10378536;28;20041;-76